Time;durP1;ratioP1;P1;durP2;ratioP2;P2;SDS_P1;SDS_P2;PMS_P1;PMS_P2;Temp;Humidity;BMP_temperature;BMP_pressure;BME280_temperature;BME280_humidity;BME280_pressure;Samples;Min_cycle;Max_cycle;Signal;HPM_P1;HPM_P2
2022/12/06 00:01:56;;;;;;;10.73;7.33;;;;;;;;;;5093489;28;20451;-70
2022/12/06 00:04:23;;;;;;;10.07;7.20;;;;;;;;;;5092641;28;20552;-70
2022/12/06 00:06:51;;;;;;;10.73;7.70;;;;;;;;;;5093137;28;20509;-70
2022/12/06 00:09:19;;;;;;;13.07;7.63;;;;;;;;;;5093568;28;20482;-70
2022/12/06 00:11:47;;;;;;;11.53;7.70;;;;;;;;;;5093283;28;20483;-70
2022/12/06 00:14:14;;;;;;;10.57;8.47;;;;;;;;;;5092699;28;20478;-70
2022/12/06 00:16:42;;;;;;;11.00;7.97;;;;;;;;;;5092950;28;20548;-70
2022/12/06 00:19:10;;;;;;;10.00;6.60;;;;;;;;;;5093171;28;20454;-70
2022/12/06 00:21:38;;;;;;;13.13;7.73;;;;;;;;;;5093150;28;20489;-70
2022/12/06 00:24:08;;;;;;;12.13;7.33;;;;;;;;;;5092712;28;20454;-70
2022/12/06 00:26:36;;;;;;;9.60;6.67;;;;;;;;;;5092845;28;21094;-70
2022/12/06 00:29:04;;;;;;;10.07;7.10;;;;;;;;;;5093049;28;20885;-70
2022/12/06 00:31:33;;;;;;;10.20;7.23;;;;;;;;;;5092984;28;21007;-69
2022/12/06 00:34:00;;;;;;;9.97;6.93;;;;;;;;;;5092274;28;20455;-70
2022/12/06 00:36:28;;;;;;;12.10;7.23;;;;;;;;;;5092967;28;20478;-70
2022/12/06 00:38:56;;;;;;;9.87;7.40;;;;;;;;;;5092760;28;20485;-70
2022/12/06 00:41:25;;;;;;;13.20;8.20;;;;;;;;;;5093058;28;20478;-70
2022/12/06 00:43:53;;;;;;;11.40;7.83;;;;;;;;;;5092032;28;20963;-70
2022/12/06 00:46:21;;;;;;;9.93;7.20;;;;;;;;;;5092730;28;20624;-70
2022/12/06 00:48:49;;;;;;;11.03;7.87;;;;;;;;;;5092643;28;20998;-70
2022/12/06 00:51:17;;;;;;;10.87;7.90;;;;;;;;;;5092766;28;20490;-70
2022/12/06 00:53:44;;;;;;;13.20;8.27;;;;;;;;;;5092149;28;20494;-70
2022/12/06 00:56:12;;;;;;;10.53;7.10;;;;;;;;;;5091931;28;20447;-70
2022/12/06 00:58:41;;;;;;;8.90;7.77;;;;;;;;;;5092534;28;20498;-70
2022/12/06 01:01:09;;;;;;;8.93;5.80;;;;;;;;;;5092746;28;20892;-70
2022/12/06 01:03:36;;;;;;;10.03;7.50;;;;;;;;;;5092018;28;20553;-70
2022/12/06 01:06:04;;;;;;;9.70;7.33;;;;;;;;;;5092427;28;20525;-70
2022/12/06 01:08:32;;;;;;;11.70;7.50;;;;;;;;;;5092506;28;20553;-69
2022/12/06 01:10:59;;;;;;;10.20;7.17;;;;;;;;;;5092407;28;20485;-70
2022/12/06 01:13:26;;;;;;;10.23;7.57;;;;;;;;;;5092222;28;20978;-69
2022/12/06 01:15:56;;;;;;;9.43;6.70;;;;;;;;;;5092333;28;20443;-70
2022/12/06 01:18:23;;;;;;;9.13;6.47;;;;;;;;;;5092486;28;20509;-70
2022/12/06 01:20:50;;;;;;;9.67;6.50;;;;;;;;;;5092348;28;20453;-70
2022/12/06 01:23:17;;;;;;;9.43;6.73;;;;;;;;;;5092505;28;20453;-70
2022/12/06 01:25:51;;;;;;;8.60;6.47;;;;;;;;;;5091594;28;20486;-70
2022/12/06 01:28:18;;;;;;;10.03;7.17;;;;;;;;;;5092449;28;20549;-70
2022/12/06 01:30:45;;;;;;;7.60;6.00;;;;;;;;;;5092224;28;20450;-70
2022/12/06 01:33:14;;;;;;;8.80;6.37;;;;;;;;;;5092240;28;20443;-69
2022/12/06 01:35:42;;;;;;;7.33;6.37;;;;;;;;;;5091743;28;20443;-70
2022/12/06 01:38:09;;;;;;;11.87;8.80;;;;;;;;;;5092240;28;20478;-70
2022/12/06 01:40:38;;;;;;;8.43;6.73;;;;;;;;;;5092235;28;20461;-70
2022/12/06 01:43:05;;;;;;;10.27;7.37;;;;;;;;;;5092441;28;20450;-70
2022/12/06 01:45:32;;;;;;;10.33;7.67;;;;;;;;;;5091278;28;20522;-70
2022/12/06 01:47:59;;;;;;;11.63;8.23;;;;;;;;;;5092170;28;20481;-70
2022/12/06 01:50:31;;;;;;;11.10;8.17;;;;;;;;;;5092400;28;20455;-70
2022/12/06 01:53:01;;;;;;;12.43;7.10;;;;;;;;;;5092488;28;20863;-69
2022/12/06 01:55:30;;;;;;;11.53;8.50;;;;;;;;;;5091629;28;20451;-70
2022/12/06 01:58:01;;;;;;;9.40;7.17;;;;;;;;;;5091904;28;21009;-70
2022/12/06 02:00:28;;;;;;;9.00;6.73;;;;;;;;;;5092185;28;20453;-70
2022/12/06 02:02:58;;;;;;;9.23;7.57;;;;;;;;;;5092118;28;20450;-70
2022/12/06 02:05:26;;;;;;;10.83;7.57;;;;;;;;;;5091258;28;20491;-70
2022/12/06 02:07:55;;;;;;;8.47;7.50;;;;;;;;;;5095490;28;20458;-70
2022/12/06 02:10:22;;;;;;;10.87;7.97;;;;;;;;;;5095720;28;20454;-70
2022/12/06 02:12:51;;;;;;;9.70;7.70;;;;;;;;;;5095476;28;20966;-69
2022/12/06 02:15:19;;;;;;;10.73;7.07;;;;;;;;;;5095025;28;20455;-70
2022/12/06 02:17:48;;;;;;;9.60;7.10;;;;;;;;;;5095204;28;20496;-69
2022/12/06 02:20:22;;;;;;;12.60;8.20;;;;;;;;;;5095521;28;20446;-70
2022/12/06 02:23:12;;;;;;;9.90;7.17;;;;;;;;;;5095431;28;20451;-70
2022/12/06 02:25:51;;;;;;;11.33;8.23;;;;;;;;;;5094592;28;20486;-70
2022/12/06 02:28:36;;;;;;;11.60;7.77;;;;;;;;;;5095144;28;20475;-70
2022/12/06 02:31:08;;;;;;;9.37;7.50;;;;;;;;;;5064450;28;20485;-70
2022/12/06 02:33:37;;;;;;;11.57;8.80;;;;;;;;;;5094521;28;20454;-70
2022/12/06 02:36:06;;;;;;;10.63;8.40;;;;;;;;;;5095178;28;20459;-70
2022/12/06 02:38:35;;;;;;;12.23;9.03;;;;;;;;;;5095052;28;20467;-70
2022/12/06 02:41:04;;;;;;;11.37;7.90;;;;;;;;;;5095096;28;20808;-70
2022/12/06 02:43:34;;;;;;;9.93;7.60;;;;;;;;;;5094525;28;20958;-69
2022/12/06 02:46:04;;;;;;;11.47;7.83;;;;;;;;;;5094715;28;20569;-70
2022/12/06 02:48:33;;;;;;;11.93;8.13;;;;;;;;;;5094982;28;20849;-70
2022/12/06 02:51:02;;;;;;;10.83;8.00;;;;;;;;;;5094843;28;20454;-70
2022/12/06 02:53:29;;;;;;;11.97;8.63;;;;;;;;;;5094234;28;20451;-70
2022/12/06 02:55:57;;;;;;;12.37;7.50;;;;;;;;;;5094583;28;20443;-70
2022/12/06 02:58:24;;;;;;;12.77;9.07;;;;;;;;;;5094631;28;20481;-70
2022/12/06 03:00:54;;;;;;;10.30;8.03;;;;;;;;;;5094493;28;20845;-70
2022/12/06 03:03:30;;;;;;;11.80;8.17;;;;;;;;;;5094515;28;20468;-70
2022/12/06 03:06:07;;;;;;;13.57;8.90;;;;;;;;;;5094410;28;20500;-70
2022/12/06 03:08:36;;;;;;;13.20;9.07;;;;;;;;;;5094498;28;20480;-70
2022/12/06 03:11:04;;;;;;;11.43;8.17;;;;;;;;;;5094569;28;20461;-70
2022/12/06 03:13:34;;;;;;;10.93;8.37;;;;;;;;;;5093985;28;20451;-70
2022/12/06 03:16:05;;;;;;;9.47;7.60;;;;;;;;;;5094097;28;20455;-69
2022/12/06 03:18:35;;;;;;;14.20;9.00;;;;;;;;;;5093569;28;20483;-70
2022/12/06 03:21:06;;;;;;;11.83;8.10;;;;;;;;;;5094316;28;20458;-70
2022/12/06 03:23:34;;;;;;;12.70;8.90;;;;;;;;;;5093727;28;20457;-70
2022/12/06 03:26:02;;;;;;;15.73;9.63;;;;;;;;;;5094054;28;20856;-70
2022/12/06 03:28:30;;;;;;;18.80;11.10;;;;;;;;;;5094108;28;20466;-70
2022/12/06 03:31:00;;;;;;;14.20;9.67;;;;;;;;;;5094004;28;20504;-70
2022/12/06 03:33:28;;;;;;;12.10;8.37;;;;;;;;;;5094115;28;20446;-70
2022/12/06 03:35:56;;;;;;;15.47;9.40;;;;;;;;;;5093750;28;20456;-70
2022/12/06 03:38:27;;;;;;;15.37;10.20;;;;;;;;;;5093864;28;20487;-70
2022/12/06 03:40:56;;;;;;;11.27;9.00;;;;;;;;;;5093994;28;20458;-70
2022/12/06 03:43:23;;;;;;;14.17;9.30;;;;;;;;;;5093521;28;20451;-70
2022/12/06 03:45:54;;;;;;;14.23;8.60;;;;;;;;;;5093389;28;20489;-70
2022/12/06 03:48:23;;;;;;;11.20;8.47;;;;;;;;;;5093770;28;20477;-70
2022/12/06 03:50:53;;;;;;;11.93;8.60;;;;;;;;;;5093567;28;20494;-70
2022/12/06 03:53:21;;;;;;;15.50;9.13;;;;;;;;;;5093687;28;20447;-70
2022/12/06 03:55:49;;;;;;;12.70;9.37;;;;;;;;;;5093078;28;20468;-70
2022/12/06 03:58:16;;;;;;;14.30;9.60;;;;;;;;;;5093287;28;20477;-70
2022/12/06 04:00:43;;;;;;;14.90;9.07;;;;;;;;;;5093381;28;20549;-69
2022/12/06 04:03:11;;;;;;;13.23;9.50;;;;;;;;;;5093450;28;20446;-69
2022/12/06 04:05:38;;;;;;;13.17;9.50;;;;;;;;;;5092732;28;20450;-70
2022/12/06 04:08:05;;;;;;;15.07;9.87;;;;;;;;;;5093405;28;20471;-70
2022/12/06 04:10:32;;;;;;;15.33;10.90;;;;;;;;;;5093328;28;20458;-70
2022/12/06 04:13:01;;;;;;;15.30;9.43;;;;;;;;;;5093423;28;20542;-70
2022/12/06 04:15:29;;;;;;;14.20;9.47;;;;;;;;;;5092628;28;20459;-70
2022/12/06 04:18:12;;;;;;;14.37;10.13;;;;;;;;;;5093009;28;20496;-70
2022/12/06 04:23:32;;;;;;;20.57;12.17;;;;;;;;;;5092937;28;20427;-70
2022/12/06 04:25:59;;;;;;;22.10;12.40;;;;;;;;;;5092851;28;20487;-70
2022/12/06 04:39:26;;;;;;;20.10;12.57;;;;;;;;;;5092983;28;20491;-70
2022/12/06 04:44:40;;;;;;;17.87;11.20;;;;;;;;;;5092107;28;20422;-70
2022/12/06 04:47:07;;;;;;;18.60;13.20;;;;;;;;;;5092496;28;20501;-70
2022/12/06 04:49:34;;;;;;;23.53;14.03;;;;;;;;;;5092794;28;20451;-70
2022/12/06 04:52:01;;;;;;;18.10;11.73;;;;;;;;;;5092585;28;20454;-70
2022/12/06 04:54:30;;;;;;;17.60;11.73;;;;;;;;;;5092039;28;20454;-70
2022/12/06 04:56:57;;;;;;;23.73;12.53;;;;;;;;;;5092755;28;20935;-70
2022/12/06 04:59:24;;;;;;;22.53;12.10;;;;;;;;;;5092577;28;20455;-69
2022/12/06 05:01:53;;;;;;;19.00;12.80;;;;;;;;;;5092616;28;20461;-70
2022/12/06 05:04:20;;;;;;;18.47;12.20;;;;;;;;;;5091992;28;20454;-70
2022/12/06 05:06:48;;;;;;;21.17;11.67;;;;;;;;;;5092101;28;20498;-69
2022/12/06 05:09:15;;;;;;;20.43;13.23;;;;;;;;;;5092782;28;20443;-70
2022/12/06 05:11:42;;;;;;;20.40;12.10;;;;;;;;;;5092424;28;20446;-70
2022/12/06 05:14:09;;;;;;;18.30;12.57;;;;;;;;;;5091765;28;20469;-70
2022/12/06 05:16:36;;;;;;;20.20;14.10;;;;;;;;;;5092309;28;20486;-70
2022/12/06 05:19:05;;;;;;;18.20;12.20;;;;;;;;;;5092471;28;20458;-70
2022/12/06 05:21:32;;;;;;;22.43;12.50;;;;;;;;;;5092447;28;20484;-70
2022/12/06 05:23:59;;;;;;;16.33;11.77;;;;;;;;;;5091927;28;20472;-70
2022/12/06 05:26:27;;;;;;;17.70;12.37;;;;;;;;;;5092154;28;20490;-70
2022/12/06 05:28:55;;;;;;;15.07;10.43;;;;;;;;;;5092316;28;20458;-70
2022/12/06 05:31:22;;;;;;;16.27;10.53;;;;;;;;;;5092532;28;20952;-70
2022/12/06 05:33:50;;;;;;;21.03;12.83;;;;;;;;;;5091472;28;20466;-70
2022/12/06 05:36:20;;;;;;;18.27;11.40;;;;;;;;;;5092454;28;20450;-70
2022/12/06 05:38:47;;;;;;;19.57;11.90;;;;;;;;;;5092252;28;20443;-70
2022/12/06 05:41:15;;;;;;;19.63;14.17;;;;;;;;;;5093422;28;20450;-70
2022/12/06 05:43:42;;;;;;;20.87;11.17;;;;;;;;;;5095632;28;20582;-70
2022/12/06 05:46:09;;;;;;;20.00;12.53;;;;;;;;;;5096067;28;20979;-70
2022/12/06 05:48:36;;;;;;;22.83;11.40;;;;;;;;;;5096110;28;20474;-70
2022/12/06 05:51:03;;;;;;;19.57;12.73;;;;;;;;;;5095926;28;20455;-70
2022/12/06 05:53:32;;;;;;;36.10;19.40;;;;;;;;;;5095457;28;20454;-70
2022/12/06 05:56:04;;;;;;;17.77;11.67;;;;;;;;;;5095927;28;20814;-70
2022/12/06 05:58:32;;;;;;;17.30;10.80;;;;;;;;;;5095857;28;20524;-70
2022/12/06 06:00:59;;;;;;;19.77;11.77;;;;;;;;;;5095708;28;20463;-70
2022/12/06 06:03:26;;;;;;;19.53;11.87;;;;;;;;;;5095709;28;20443;-70
2022/12/06 06:05:56;;;;;;;18.07;11.57;;;;;;;;;;5102245;28;20450;-70
2022/12/06 06:08:23;;;;;;;18.37;12.07;;;;;;;;;;5114934;27;20478;-70
2022/12/06 06:10:52;;;;;;;20.93;12.93;;;;;;;;;;5114629;28;20445;-69
2022/12/06 06:13:19;;;;;;;29.03;16.30;;;;;;;;;;5114893;28;20457;-69
2022/12/06 06:15:46;;;;;;;21.90;12.57;;;;;;;;;;5115198;28;20454;-70
2022/12/06 06:18:14;;;;;;;21.80;12.93;;;;;;;;;;5115838;28;20469;-69
2022/12/06 06:20:41;;;;;;;21.37;13.40;;;;;;;;;;5096727;28;20498;-70
2022/12/06 06:23:08;;;;;;;25.00;13.50;;;;;;;;;;5095422;28;20450;-70
2022/12/06 06:25:35;;;;;;;27.27;14.03;;;;;;;;;;5094793;28;20458;-70
2022/12/06 06:28:04;;;;;;;23.50;13.73;;;;;;;;;;5095122;28;20581;-70
2022/12/06 06:30:31;;;;;;;28.77;15.77;;;;;;;;;;5097730;28;20956;-70
2022/12/06 06:32:58;;;;;;;23.87;14.40;;;;;;;;;;5094637;28;20817;-70
2022/12/06 06:35:26;;;;;;;24.80;15.87;;;;;;;;;;5094410;28;20463;-70
2022/12/06 06:37:54;;;;;;;34.33;16.33;;;;;;;;;;5094755;28;20471;-70
2022/12/06 06:40:21;;;;;;;34.40;19.03;;;;;;;;;;5094561;28;20450;-70
2022/12/06 06:42:48;;;;;;;33.53;19.97;;;;;;;;;;5094698;28;20811;-71
2022/12/06 06:45:17;;;;;;;42.00;22.57;;;;;;;;;;5094333;28;20447;-70
2022/12/06 06:47:44;;;;;;;44.07;22.30;;;;;;;;;;5094188;28;20509;-70
2022/12/06 06:50:11;;;;;;;51.60;26.10;;;;;;;;;;5094530;28;20450;-70
2022/12/06 06:52:39;;;;;;;51.90;24.30;;;;;;;;;;5093306;28;20451;-70
2022/12/06 06:55:06;;;;;;;42.60;22.23;;;;;;;;;;5094178;28;20944;-70
2022/12/06 06:57:35;;;;;;;27.87;16.20;;;;;;;;;;5094277;28;20997;-70
2022/12/06 07:00:02;;;;;;;24.23;15.17;;;;;;;;;;5094183;28;20455;-70
2022/12/06 07:02:30;;;;;;;30.60;15.10;;;;;;;;;;5094264;28;20546;-70
2022/12/06 07:04:57;;;;;;;24.87;13.67;;;;;;;;;;5093533;28;20446;-70
2022/12/06 07:07:25;;;;;;;27.43;13.73;;;;;;;;;;5094069;28;20988;-69
2022/12/06 07:09:52;;;;;;;19.53;11.57;;;;;;;;;;5093885;28;20461;-70
2022/12/06 07:12:19;;;;;;;21.10;13.13;;;;;;;;;;5094246;28;20490;-70
2022/12/06 07:14:46;;;;;;;21.47;11.73;;;;;;;;;;5093492;28;20457;-70
2022/12/06 07:17:14;;;;;;;20.30;12.93;;;;;;;;;;5094015;28;20480;-70
2022/12/06 07:19:42;;;;;;;19.27;12.80;;;;;;;;;;5093633;28;20457;-70
2022/12/06 07:22:10;;;;;;;26.40;14.50;;;;;;;;;;5093855;28;20459;-70
2022/12/06 07:24:37;;;;;;;24.27;13.60;;;;;;;;;;5093439;28;20465;-69
2022/12/06 07:27:04;;;;;;;22.83;13.30;;;;;;;;;;5093577;28;20501;-70
2022/12/06 07:29:32;;;;;;;16.00;10.87;;;;;;;;;;5105803;28;20460;-70
2022/12/06 07:31:59;;;;;;;19.90;12.67;;;;;;;;;;5114085;28;20885;-70
2022/12/06 07:34:26;;;;;;;18.97;12.07;;;;;;;;;;5113660;28;20449;-70
2022/12/06 07:36:54;;;;;;;20.77;12.63;;;;;;;;;;5113908;28;20830;-70
2022/12/06 07:39:21;;;;;;;31.43;19.80;;;;;;;;;;5113900;28;20450;-70
2022/12/06 07:47:18;;;;;;;25.17;14.60;;;;;;;;;;5093488;28;20531;-70
2022/12/06 07:49:45;;;;;;;19.33;12.67;;;;;;;;;;5093263;28;20438;-70
2022/12/06 07:52:13;;;;;;;19.53;12.60;;;;;;;;;;5093424;28;20799;-70
2022/12/06 07:54:41;;;;;;;22.13;13.77;;;;;;;;;;5092801;28;20457;-70
2022/12/06 07:57:08;;;;;;;22.70;13.37;;;;;;;;;;5093481;28;20462;-71
2022/12/06 07:59:35;;;;;;;27.63;16.87;;;;;;;;;;5093068;28;20482;-71
2022/12/06 08:02:03;;;;;;;26.47;15.00;;;;;;;;;;5093306;28;20970;-70
2022/12/06 08:04:30;;;;;;;19.77;11.80;;;;;;;;;;5092612;28;20457;-70
2022/12/06 08:06:59;;;;;;;18.27;12.30;;;;;;;;;;5093205;28;20494;-71
2022/12/06 08:09:28;;;;;;;21.83;12.03;;;;;;;;;;5093165;28;20966;-70
2022/12/06 08:11:55;;;;;;;22.57;13.20;;;;;;;;;;5092766;28;20836;-70
2022/12/06 08:14:22;;;;;;;19.50;11.73;;;;;;;;;;5092589;28;20451;-70
2022/12/06 08:16:51;;;;;;;19.23;11.70;;;;;;;;;;5092675;28;20835;-71
2022/12/06 08:19:18;;;;;;;21.73;13.80;;;;;;;;;;5092809;28;20819;-70
2022/12/06 08:21:45;;;;;;;22.50;13.47;;;;;;;;;;5092816;28;20975;-70
2022/12/06 08:24:12;;;;;;;20.37;11.03;;;;;;;;;;5092522;28;20944;-71
2022/12/06 08:26:41;;;;;;;24.50;13.23;;;;;;;;;;5092513;28;20470;-70
2022/12/06 08:29:08;;;;;;;23.47;14.30;;;;;;;;;;5092623;28;20450;-71
2022/12/06 08:31:35;;;;;;;23.63;13.83;;;;;;;;;;5092807;28;20451;-70
2022/12/06 08:34:02;;;;;;;19.27;11.57;;;;;;;;;;5092132;28;20962;-70
2022/12/06 08:36:30;;;;;;;20.73;11.17;;;;;;;;;;5092518;28;20545;-71
2022/12/06 08:38:58;;;;;;;19.27;11.30;;;;;;;;;;5092359;28;20454;-71
2022/12/06 08:44:13;;;;;;;16.63;10.83;;;;;;;;;;5092128;28;20426;-70
2022/12/06 08:46:40;;;;;;;19.97;11.30;;;;;;;;;;5092267;28;20482;-70
2022/12/06 08:49:07;;;;;;;17.30;11.47;;;;;;;;;;5092518;28;20454;-71
2022/12/06 08:51:35;;;;;;;21.63;13.17;;;;;;;;;;5092404;28;20461;-70
2022/12/06 08:54:03;;;;;;;23.37;13.50;;;;;;;;;;5091979;28;20454;-70
2022/12/06 08:56:30;;;;;;;23.07;15.70;;;;;;;;;;5092391;28;20451;-71
2022/12/06 08:58:57;;;;;;;21.17;13.70;;;;;;;;;;5092112;28;20453;-70
2022/12/06 09:01:27;;;;;;;22.10;14.00;;;;;;;;;;5092432;28;20446;-71
2022/12/06 09:03:54;;;;;;;19.70;12.10;;;;;;;;;;5091638;28;20974;-71
2022/12/06 09:06:22;;;;;;;18.33;12.30;;;;;;;;;;5092180;28;20807;-70
2022/12/06 09:08:49;;;;;;;18.83;13.00;;;;;;;;;;5091950;28;20482;-70
2022/12/06 09:11:16;;;;;;;20.73;11.70;;;;;;;;;;5092408;28;20457;-70
2022/12/06 09:13:44;;;;;;;18.80;12.52;;;;;;;;;;5088292;28;20450;-69
2022/12/06 09:16:12;;;;;;;19.97;12.20;;;;;;;;;;5072851;28;20671;-71
2022/12/06 09:18:41;;;;;;;17.80;11.40;;;;;;;;;;5075836;28;20471;-70
2022/12/06 09:21:10;;;;;;;19.80;12.10;;;;;;;;;;5076123;28;20455;-71
2022/12/06 09:23:38;;;;;;;18.90;12.63;;;;;;;;;;5075452;28;20459;-71
2022/12/06 09:26:05;;;;;;;19.00;11.43;;;;;;;;;;5075914;28;20451;-70
2022/12/06 09:28:34;;;;;;;18.90;12.33;;;;;;;;;;5075787;28;20497;-71
2022/12/06 09:31:02;;;;;;;17.67;10.60;;;;;;;;;;5094356;28;20470;-71
2022/12/06 09:33:29;;;;;;;20.87;11.90;;;;;;;;;;5096035;28;20446;-71
2022/12/06 09:35:58;;;;;;;17.63;9.97;;;;;;;;;;5096284;28;20792;-71
2022/12/06 09:38:28;;;;;;;16.30;11.80;;;;;;;;;;5096106;28;20471;-70
2022/12/06 09:40:59;;;;;;;27.83;13.43;;;;;;;;;;5096233;28;20465;-71
2022/12/06 09:43:31;;;;;;;18.13;12.33;;;;;;;;;;5096171;28;20959;-71
2022/12/06 09:46:10;;;;;;;22.73;11.17;;;;;;;;;;5096181;28;20574;-71
2022/12/06 09:48:52;;;;;;;20.40;12.37;;;;;;;;;;5095990;28;20486;-71
2022/12/06 09:51:28;;;;;;;20.03;12.27;;;;;;;;;;5093782;28;20458;-71
2022/12/06 09:54:02;;;;;;;20.17;12.60;;;;;;;;;;5095484;28;20953;-71
2022/12/06 09:56:32;;;;;;;18.10;11.40;;;;;;;;;;5095812;28;20449;-71
2022/12/06 09:59:03;;;;;;;16.63;11.33;;;;;;;;;;5096003;28;20449;-71
2022/12/06 10:01:37;;;;;;;21.57;13.23;;;;;;;;;;5095949;28;20932;-70
2022/12/06 10:04:24;;;;;;;25.07;14.17;;;;;;;;;;5095418;28;20447;-71
2022/12/06 10:06:56;;;;;;;21.90;12.93;;;;;;;;;;5095487;28;20497;-71
2022/12/06 10:09:32;;;;;;;19.27;11.27;;;;;;;;;;5095695;28;20489;-71
2022/12/06 10:12:13;;;;;;;18.00;12.40;;;;;;;;;;5095655;28;20447;-71
2022/12/06 10:14:53;;;;;;;17.10;10.90;;;;;;;;;;5095278;28;20496;-70
2022/12/06 10:17:26;;;;;;;21.70;11.97;;;;;;;;;;5095546;28;20474;-70
2022/12/06 10:19:59;;;;;;;18.87;12.17;;;;;;;;;;5095451;28;20451;-71
2022/12/06 10:22:30;;;;;;;13.80;9.83;;;;;;;;;;5095529;28;20462;-70
2022/12/06 10:25:00;;;;;;;16.07;9.80;;;;;;;;;;5094774;28;20455;-70
2022/12/06 10:27:30;;;;;;;18.23;9.97;;;;;;;;;;5094913;28;20476;-70
2022/12/06 10:29:58;;;;;;;17.03;10.97;;;;;;;;;;5095414;28;20459;-70
2022/12/06 10:32:40;;;;;;;15.63;10.70;;;;;;;;;;5095200;28;20577;-70
2022/12/06 10:35:14;;;;;;;15.20;10.27;;;;;;;;;;5092614;28;20461;-70
2022/12/06 10:37:46;;;;;;;15.40;10.20;;;;;;;;;;5095029;28;21002;-70
2022/12/06 10:40:16;;;;;;;15.53;10.40;;;;;;;;;;5095090;28;20459;-70
2022/12/06 10:42:45;;;;;;;11.97;8.57;;;;;;;;;;5095049;28;20520;-71
2022/12/06 10:48:00;;;;;;;16.20;9.90;;;;;;;;;;5094593;28;20846;-71
2022/12/06 10:50:29;;;;;;;11.00;9.80;;;;;;;;;;5094752;28;20446;-70
2022/12/06 10:53:00;;;;;;;11.63;7.50;;;;;;;;;;5094777;28;20451;-70
2022/12/06 10:55:30;;;;;;;16.10;8.97;;;;;;;;;;5094346;28;20527;-70
2022/12/06 10:58:01;;;;;;;11.77;8.23;;;;;;;;;;5094662;28;20820;-71
2022/12/06 11:00:30;;;;;;;15.10;9.03;;;;;;;;;;5094663;28;20455;-70
2022/12/06 11:02:59;;;;;;;13.43;8.57;;;;;;;;;;5094537;28;20455;-71
2022/12/06 11:05:28;;;;;;;12.93;8.70;;;;;;;;;;5094233;28;20951;-71
2022/12/06 11:08:02;;;;;;;10.77;8.33;;;;;;;;;;5094242;28;20494;-71
2022/12/06 11:10:30;;;;;;;12.93;8.40;;;;;;;;;;5094438;28;20508;-71
2022/12/06 11:12:59;;;;;;;9.80;8.07;;;;;;;;;;5094215;28;20459;-71
2022/12/06 11:15:28;;;;;;;9.10;7.37;;;;;;;;;;5093857;28;20454;-70
2022/12/06 11:17:58;;;;;;;10.60;8.30;;;;;;;;;;5094240;28;20478;-71
2022/12/06 11:20:26;;;;;;;11.27;7.17;;;;;;;;;;5094193;28;20450;-71
2022/12/06 11:23:04;;;;;;;10.17;8.20;;;;;;;;;;5093988;28;20452;-70
2022/12/06 11:25:35;;;;;;;11.43;8.67;;;;;;;;;;5093740;28;20963;-71
2022/12/06 11:28:06;;;;;;;11.50;7.77;;;;;;;;;;5093907;28;20501;-71
2022/12/06 11:30:33;;;;;;;9.90;7.20;;;;;;;;;;5094307;28;20827;-70
2022/12/06 11:33:01;;;;;;;11.53;8.07;;;;;;;;;;5093881;28;20447;-70
2022/12/06 11:35:29;;;;;;;10.30;7.77;;;;;;;;;;5093532;28;20980;-70
2022/12/06 11:37:58;;;;;;;9.93;7.07;;;;;;;;;;5093897;28;20459;-70
2022/12/06 11:40:27;;;;;;;10.97;8.00;;;;;;;;;;5093280;28;20442;-70
2022/12/06 11:42:56;;;;;;;10.43;7.07;;;;;;;;;;5093788;28;20977;-70
2022/12/06 11:45:25;;;;;;;7.87;5.80;;;;;;;;;;5093198;28;20450;-70
2022/12/06 11:47:53;;;;;;;7.50;5.43;;;;;;;;;;5093504;28;20466;-70
2022/12/06 11:50:20;;;;;;;10.37;6.70;;;;;;;;;;5093826;28;20871;-70
2022/12/06 11:52:50;;;;;;;10.43;6.57;;;;;;;;;;5093810;28;20442;-70
2022/12/06 11:55:19;;;;;;;11.53;6.37;;;;;;;;;;5093188;28;20447;-70
2022/12/06 11:57:49;;;;;;;10.60;6.77;;;;;;;;;;5093729;28;20979;-70
2022/12/06 12:00:19;;;;;;;10.03;7.03;;;;;;;;;;5093554;28;20451;-70
2022/12/06 12:02:47;;;;;;;8.00;5.90;;;;;;;;;;5093661;28;20451;-70
2022/12/06 12:05:19;;;;;;;8.73;6.80;;;;;;;;;;5093033;28;20877;-70
2022/12/06 12:07:49;;;;;;;8.37;6.27;;;;;;;;;;5093449;28;20987;-70
2022/12/06 12:10:28;;;;;;;8.57;5.97;;;;;;;;;;5093505;28;20447;-70
2022/12/06 12:15:49;;;;;;;10.87;6.17;;;;;;;;;;5092709;28;21004;-70
2022/12/06 12:18:22;;;;;;;10.03;6.30;;;;;;;;;;5093193;28;20462;-70
2022/12/06 12:20:49;;;;;;;8.43;5.80;;;;;;;;;;5093269;28;20950;-70
2022/12/06 12:23:18;;;;;;;7.63;6.03;;;;;;;;;;5093100;28;20462;-70
2022/12/06 12:25:58;;;;;;;7.40;6.10;;;;;;;;;;5092629;28;20450;-70
2022/12/06 12:28:26;;;;;;;12.07;7.10;;;;;;;;;;5092895;28;20493;-70
2022/12/06 12:30:55;;;;;;;10.63;7.37;;;;;;;;;;5093046;28;20455;-70
2022/12/06 12:33:23;;;;;;;19.43;10.20;;;;;;;;;;5092925;28;20450;-70
2022/12/06 12:35:55;;;;;;;12.87;6.93;;;;;;;;;;5092545;28;20814;-70
2022/12/06 12:38:31;;;;;;;14.17;9.33;;;;;;;;;;5093054;28;20470;-70
2022/12/06 12:41:00;;;;;;;21.80;9.80;;;;;;;;;;5092778;28;20461;-69
2022/12/06 12:43:29;;;;;;;12.23;7.20;;;;;;;;;;5092751;28;21007;-70
2022/12/06 12:46:14;;;;;;;7.60;5.53;;;;;;;;;;5092504;28;20556;-70
2022/12/06 12:48:42;;;;;;;9.03;5.43;;;;;;;;;;5092626;28;20482;-70
2022/12/06 12:51:20;;;;;;;8.47;6.20;;;;;;;;;;5091585;28;20454;-70
2022/12/06 12:53:48;;;;;;;8.67;5.60;;;;;;;;;;5092143;28;20455;-70
2022/12/06 12:56:16;;;;;;;8.33;6.60;;;;;;;;;;5092593;28;20516;-70
2022/12/06 12:58:43;;;;;;;11.30;5.63;;;;;;;;;;5092644;28;20449;-70
2022/12/06 13:01:18;;;;;;;5.53;4.67;;;;;;;;;;5092736;28;20995;-71
2022/12/06 13:03:46;;;;;;;9.20;6.00;;;;;;;;;;5091912;28;20454;-70
2022/12/06 13:06:16;;;;;;;12.20;7.27;;;;;;;;;;5093055;28;21022;-71
2022/12/06 13:08:44;;;;;;;10.03;6.60;;;;;;;;;;5092379;28;21111;-70
2022/12/06 13:11:11;;;;;;;9.20;5.57;;;;;;;;;;5092645;28;20458;-70
2022/12/06 13:13:41;;;;;;;28.13;7.93;;;;;;;;;;5092285;28;20461;-70
2022/12/06 13:16:12;;;;;;;9.83;6.83;;;;;;;;;;5092419;28;20951;-71
2022/12/06 13:18:43;;;;;;;9.37;6.27;;;;;;;;;;5092339;28;20463;-70
2022/12/06 13:21:15;;;;;;;10.73;7.63;;;;;;;;;;5092808;28;20457;-70
2022/12/06 13:23:42;;;;;;;10.60;7.10;;;;;;;;;;5092004;28;20457;-70
2022/12/06 13:26:15;;;;;;;11.20;5.93;;;;;;;;;;5092534;28;20811;-70
2022/12/06 13:28:45;;;;;;;8.20;6.20;;;;;;;;;;5092420;28;20486;-70
2022/12/06 13:31:13;;;;;;;13.30;8.53;;;;;;;;;;5090398;28;20462;-70
2022/12/06 13:33:45;;;;;;;6.53;5.03;;;;;;;;;;5091573;28;20496;-70
2022/12/06 13:36:14;;;;;;;9.53;5.80;;;;;;;;;;5092156;28;20923;-70
2022/12/06 13:38:42;;;;;;;11.70;8.60;;;;;;;;;;5092123;28;20466;-70
2022/12/06 13:41:12;;;;;;;9.13;6.13;;;;;;;;;;5092205;28;20813;-70
2022/12/06 13:43:49;;;;;;;8.73;6.00;;;;;;;;;;5091774;28;20944;-70
2022/12/06 13:46:27;;;;;;;10.67;6.90;;;;;;;;;;5092284;28;20446;-70
2022/12/06 13:48:56;;;;;;;7.77;5.97;;;;;;;;;;5092021;28;20486;-70
2022/12/06 13:51:47;;;;;;;9.40;6.20;;;;;;;;;;5092213;28;20454;-70
2022/12/06 13:54:30;;;;;;;8.30;5.90;;;;;;;;;;5091714;28;20488;-70
2022/12/06 13:56:58;;;;;;;7.83;5.33;;;;;;;;;;5091892;28;21026;-70
2022/12/06 13:59:38;;;;;;;8.37;6.60;;;;;;;;;;5092047;28;20454;-70
2022/12/06 14:02:20;;;;;;;7.20;6.07;;;;;;;;;;5092675;28;20500;-70
2022/12/06 14:04:49;;;;;;;13.63;7.40;;;;;;;;;;5095053;28;20448;-70
2022/12/06 14:07:31;;;;;;;11.63;7.10;;;;;;;;;;5095570;28;20466;-69
2022/12/06 14:09:58;;;;;;;7.80;5.77;;;;;;;;;;5095569;28;20492;-70
2022/12/06 14:12:27;;;;;;;9.07;8.07;;;;;;;;;;5095454;28;20451;-70
2022/12/06 14:14:57;;;;;;;9.33;6.83;;;;;;;;;;5094979;28;20454;-70
2022/12/06 14:17:26;;;;;;;10.17;7.17;;;;;;;;;;5095419;28;20482;-70
2022/12/06 14:19:54;;;;;;;9.47;6.10;;;;;;;;;;5095350;28;20486;-70
2022/12/06 14:22:23;;;;;;;10.43;7.70;;;;;;;;;;5095439;28;20454;-70
2022/12/06 14:24:58;;;;;;;18.77;11.37;;;;;;;;;;5094702;28;20541;-70
2022/12/06 14:27:26;;;;;;;24.53;14.40;;;;;;;;;;5095330;28;20851;-70
2022/12/06 14:30:06;;;;;;;21.63;7.80;;;;;;;;;;5093541;28;20512;-71
2022/12/06 14:32:34;;;;;;;6.50;5.47;;;;;;;;;;5095168;28;20455;-70
2022/12/06 14:35:04;;;;;;;8.43;6.47;;;;;;;;;;5094647;28;20431;-70
2022/12/06 14:37:31;;;;;;;9.50;6.60;;;;;;;;;;5095074;28;20486;-70
2022/12/06 14:39:58;;;;;;;13.60;6.97;;;;;;;;;;5095095;28;20451;-70
2022/12/06 14:45:13;;;;;;;9.90;6.17;;;;;;;;;;5094555;28;20808;-70
2022/12/06 14:47:41;;;;;;;10.70;6.43;;;;;;;;;;5094864;28;20480;-70
2022/12/06 14:50:25;;;;;;;8.30;6.27;;;;;;;;;;5094604;28;20811;-70
2022/12/06 14:53:03;;;;;;;12.07;8.27;;;;;;;;;;5094852;28;20477;-70
2022/12/06 14:55:31;;;;;;;10.80;7.40;;;;;;;;;;5094290;28;20450;-70
2022/12/06 14:57:59;;;;;;;14.20;8.30;;;;;;;;;;5094694;28;20979;-70
2022/12/06 15:00:30;;;;;;;12.10;7.90;;;;;;;;;;5094741;28;20469;-70
2022/12/06 15:03:22;;;;;;;12.53;8.30;;;;;;;;;;5094665;28;20555;-70
2022/12/06 15:05:56;;;;;;;14.10;8.10;;;;;;;;;;5094203;28;20455;-70
2022/12/06 15:08:34;;;;;;;14.53;9.27;;;;;;;;;;5094546;28;20839;-70
2022/12/06 15:11:02;;;;;;;12.53;8.50;;;;;;;;;;5094385;28;20439;-70
2022/12/06 15:13:28;;;;;;;14.97;10.30;;;;;;;;;;5093219;28;20964;-70